Virtual Washington ARTCC

Weather

KBWI 220554Z 29003KT 10SM FEW060 BKN250 21/19 A3003 RMK AO2 SLP167 T02060189 10267 20194 58002
KDCA 220552Z 00000KT 10SM OVC250 23/20 A3004 RMK AO2 SLP173 T02330200 10272 20228 58002 $
KIAD 220552Z 00000KT 10SM CLR 18/18 A3006 RMK AO2 SLP175 T01830178 10239 20183 58002
KORF 220551Z 22006KT 10SM CLR 20/18 A3004 RMK AO2 SLP173 T02000183 10244 20200 58002 $
KRDU 220551Z 00000KT 10SM FEW065 FEW250 18/18 A3007 RMK AO2 SLP177 T01780178 10222 20178 50001

Events



ZDC Activity

No controllers online.

News



The information contained on all pages of this website is to be used for flight simulation purposes only on the VATSIM network. It is not intended nor should it be used for real world navigation.This site is not affiliated with the FAA, the actual Washington Center or any governing aviation body. All content contained herein is approved only for use on the VATSIM network. ©2016 Virtual Washington ARTCC -- Source Code © 2016-2017 W. Guisbond and R. Rump.